createdAt,value
2022-08-24T00:02:18.625Z,100.00
2022-08-24T00:07:27.656Z,100.00
2022-08-24T00:12:31.167Z,100.00
2022-08-24T00:17:33.806Z,100.00
2022-08-24T00:22:35.932Z,100.00
2022-08-24T00:27:39.518Z,100.00
2022-08-24T00:32:42.727Z,100.00
2022-08-24T00:37:45.701Z,100.00
2022-08-24T00:42:48.050Z,100.00
2022-08-24T00:47:55.135Z,100.00
2022-08-24T00:53:00.739Z,100.00
2022-08-24T00:58:08.076Z,100.00
2022-08-24T01:03:14.190Z,100.00
2022-08-24T01:08:17.149Z,100.00
2022-08-24T01:13:19.385Z,100.00
2022-08-24T01:18:43.755Z,100.00
2022-08-24T01:23:49.381Z,100.00
2022-08-24T01:28:56.211Z,100.00
2022-08-24T01:33:59.074Z,100.00
2022-08-24T01:39:10.340Z,100.00
2022-08-24T01:44:12.243Z,100.00
2022-08-24T01:49:14.281Z,100.00
2022-08-24T01:54:16.177Z,100.00
2022-08-24T01:59:19.516Z,100.00
2022-08-24T02:04:21.257Z,100.00
2022-08-24T02:09:22.931Z,100.00
2022-08-24T02:14:30.644Z,100.00
2022-08-24T02:19:35.340Z,100.00
2022-08-24T02:24:37.595Z,100.00
2022-08-24T02:29:39.225Z,100.00
2022-08-24T02:34:41.248Z,100.00
2022-08-24T02:39:42.885Z,100.00
2022-08-24T02:44:44.577Z,100.00
2022-08-24T02:49:46.211Z,100.00
2022-08-24T02:54:47.936Z,100.00
2022-08-24T02:59:49.530Z,100.00
2022-08-24T03:04:51.107Z,100.00
2022-08-24T03:09:52.683Z,100.00
2022-08-24T03:14:55.096Z,100.00
2022-08-24T03:19:57.440Z,100.00
2022-08-24T03:24:59.133Z,100.00
2022-08-24T03:30:01.392Z,100.00
2022-08-24T03:35:04.549Z,100.00
2022-08-24T03:40:07.831Z,100.00
2022-08-24T03:45:24.166Z,100.00
2022-08-24T03:50:27.177Z,100.00
2022-08-24T03:55:28.750Z,100.00
2022-08-24T04:00:30.387Z,100.00
2022-08-24T04:05:34.909Z,100.00
2022-08-24T04:10:38.347Z,100.00
2022-08-24T04:15:41.716Z,100.00
2022-08-24T04:20:43.665Z,100.00
2022-08-24T04:25:48.025Z,100.00
2022-08-24T04:30:50.844Z,100.00
2022-08-24T04:35:52.636Z,100.00
2022-08-24T04:40:54.223Z,100.00
2022-08-24T04:45:55.866Z,100.00
2022-08-24T04:51:03.008Z,100.00
2022-08-24T04:56:09.439Z,100.00
2022-08-24T05:01:16.774Z,100.00
2022-08-24T05:06:20.372Z,100.00
2022-08-24T05:11:23.141Z,100.00
2022-08-24T05:16:26.456Z,100.00
2022-08-24T05:21:28.493Z,100.00
2022-08-24T05:26:31.149Z,100.00
2022-08-24T05:31:33.492Z,100.00
2022-08-24T05:36:38.426Z,100.00
2022-08-24T05:41:44.358Z,100.00
2022-08-24T05:46:46.643Z,100.00
2022-08-24T05:51:48.280Z,100.00
2022-08-24T05:56:50.216Z,100.00
2022-08-24T06:01:53.465Z,100.00
2022-08-24T06:06:55.431Z,100.00
2022-08-24T06:11:57.061Z,100.00
2022-08-24T06:16:58.736Z,100.00
2022-08-24T06:22:01.536Z,100.00
2022-08-24T06:27:21.359Z,100.00
2022-08-24T06:32:23.669Z,100.00
2022-08-24T06:37:29.165Z,100.00
2022-08-24T06:42:31.731Z,100.00
2022-08-24T06:47:33.327Z,100.00
2022-08-24T06:52:36.156Z,100.00
2022-08-24T06:57:37.742Z,100.00
2022-08-24T07:02:39.367Z,100.00
2022-08-24T07:07:40.982Z,100.00
2022-08-24T07:12:42.592Z,100.00
2022-08-24T07:17:44.204Z,100.00
2022-08-24T07:22:45.935Z,100.00
2022-08-24T07:27:47.991Z,100.00
2022-08-24T07:32:49.916Z,100.00
2022-08-24T07:37:58.617Z,100.00
2022-08-24T07:43:00.235Z,100.00
2022-08-24T07:53:13.855Z,100.00
2022-08-24T07:58:16.566Z,100.00
2022-08-24T08:03:18.397Z,100.00
2022-08-24T08:08:20.316Z,100.00
2022-08-24T08:13:21.904Z,100.00
2022-08-24T08:18:23.571Z,100.00
2022-08-24T08:23:43.935Z,100.00
2022-08-24T08:28:49.863Z,100.00
2022-08-24T08:33:51.451Z,100.00
2022-08-24T08:38:53.429Z,100.00
2022-08-24T08:44:21.705Z,100.00
2022-08-24T08:49:25.986Z,100.00
2022-08-24T08:54:44.913Z,100.00
2022-08-24T09:00:15.697Z,100.00
2022-08-24T09:05:17.556Z,100.00
2022-08-24T09:10:25.013Z,100.00
2022-08-24T09:15:55.927Z,100.00
2022-08-24T09:21:28.669Z,100.00
2022-08-24T09:26:48.363Z,100.00
2022-08-24T09:32:03.497Z,100.00
2022-08-24T09:37:27.451Z,100.00
2022-08-24T09:43:10.948Z,100.00
2022-08-24T09:48:32.110Z,100.00
2022-08-24T09:53:39.673Z,100.00
2022-08-24T09:59:10.306Z,100.00
2022-08-24T10:04:37.215Z,100.00
2022-08-24T10:10:02.751Z,100.00
2022-08-24T10:15:12.096Z,100.00
2022-08-24T10:20:25.652Z,100.00
2022-08-24T10:25:30.815Z,100.00
2022-08-24T10:30:44.598Z,100.00
2022-08-24T10:35:49.063Z,100.00
2022-08-24T10:41:26.193Z,100.00
2022-08-24T10:46:39.536Z,100.00
2022-08-24T10:52:12.331Z,100.00
2022-08-24T10:57:31.192Z,100.00
2022-08-24T11:02:38.313Z,100.00
2022-08-24T11:08:02.705Z,100.00
2022-08-24T11:13:27.364Z,100.00
2022-08-24T11:18:46.567Z,100.00
2022-08-24T11:23:48.332Z,100.00
2022-08-24T11:28:58.969Z,100.00
2022-08-24T11:34:08.220Z,98.19
2022-08-24T11:39:22.011Z,98.52
2022-08-24T11:44:38.766Z,97.11
2022-08-24T11:50:03.067Z,97.58
2022-08-24T11:55:47.304Z,96.71
2022-08-24T12:00:56.160Z,96.64
2022-08-24T12:06:32.332Z,94.85
2022-08-24T12:11:43.093Z,94.93
2022-08-24T12:16:55.393Z,94.69
2022-08-24T12:22:00.798Z,93.08
2022-08-24T12:27:10.748Z,92.74
2022-08-24T12:32:19.052Z,91.06
2022-08-24T12:37:32.985Z,90.94
2022-08-24T12:42:52.020Z,91.58
2022-08-24T12:48:06.152Z,90.33
2022-08-24T12:53:30.285Z,89.72
2022-08-24T12:58:54.379Z,89.91
2022-08-24T13:04:41.906Z,87.31
2022-08-24T13:09:57.113Z,88.76
2022-08-24T13:15:24.685Z,87.82
2022-08-24T13:20:29.431Z,85.78
2022-08-24T13:25:51.995Z,84.21
2022-08-24T13:30:56.438Z,85.47
2022-08-24T13:36:03.047Z,83.11
2022-08-24T13:41:23.379Z,82.72
2022-08-24T13:46:40.258Z,83.72
2022-08-24T13:51:51.793Z,82.26
2022-08-24T13:57:35.639Z,80.75
2022-08-24T14:03:08.619Z,80.99
2022-08-24T14:08:41.108Z,79.97
2022-08-24T14:13:49.494Z,78.97
2022-08-24T14:19:08.167Z,79.18
2022-08-24T14:24:23.061Z,79.99
2022-08-24T14:29:40.703Z,80.39
2022-08-24T14:35:05.514Z,80.17
2022-08-24T14:40:29.736Z,79.57
2022-08-24T14:45:58.421Z,79.60
2022-08-24T14:51:40.817Z,79.97
2022-08-24T14:57:17.977Z,79.86
2022-08-24T15:02:31.713Z,78.55
2022-08-24T15:07:36.818Z,79.37
2022-08-24T15:12:42.783Z,79.16
2022-08-24T15:18:06.437Z,79.78
2022-08-24T15:23:19.813Z,80.32
2022-08-24T15:28:26.515Z,80.50
2022-08-24T15:33:30.750Z,79.90
2022-08-24T15:38:35.508Z,79.93
2022-08-24T15:43:43.957Z,79.97
2022-08-24T15:48:48.166Z,79.34
2022-08-24T15:53:49.941Z,80.14
2022-08-24T15:58:52.493Z,80.17
2022-08-24T16:03:57.387Z,80.39
2022-08-24T16:09:01.265Z,81.59
2022-08-24T16:14:03.690Z,82.10
2022-08-24T16:19:18.060Z,81.42
2022-08-24T16:24:19.588Z,82.17
2022-08-24T16:29:37.014Z,82.02
2022-08-24T16:34:42.356Z,82.38
2022-08-24T16:39:44.248Z,82.80
2022-08-24T16:44:46.054Z,83.27
2022-08-24T16:49:48.583Z,83.05
2022-08-24T16:54:50.899Z,82.71
2022-08-24T16:59:53.094Z,82.84
2022-08-24T17:04:54.923Z,82.64
2022-08-24T17:09:57.786Z,83.17
2022-08-24T17:14:59.465Z,83.65
2022-08-24T17:20:01.720Z,83.91
2022-08-24T17:25:04.560Z,84.75
2022-08-24T17:30:06.732Z,85.40
2022-08-24T17:35:08.622Z,85.60
2022-08-24T17:40:13.766Z,86.00
2022-08-24T17:45:15.741Z,86.66
2022-08-24T17:50:19.322Z,87.35
2022-08-24T17:55:25.035Z,87.61
2022-08-24T18:00:27.091Z,87.40
2022-08-24T18:05:32.508Z,88.32
2022-08-24T18:10:34.611Z,89.39
2022-08-24T18:15:36.660Z,91.33
2022-08-24T18:20:41.616Z,91.31
2022-08-24T18:25:47.660Z,92.83
2022-08-24T18:30:49.612Z,92.27
2022-08-24T18:35:51.273Z,92.79
2022-08-24T18:40:53.223Z,92.65
2022-08-24T18:45:55.038Z,93.16
2022-08-24T18:50:57.561Z,93.89
2022-08-24T18:56:08.105Z,95.04
2022-08-24T19:01:13.857Z,95.82
2022-08-24T19:06:15.537Z,96.04
2022-08-24T19:11:21.093Z,95.67
2022-08-24T19:16:22.710Z,95.55
2022-08-24T19:21:26.624Z,96.55
2022-08-24T19:26:29.212Z,96.84
2022-08-24T19:31:33.544Z,96.87
2022-08-24T19:36:35.191Z,96.88
2022-08-24T19:41:43.270Z,97.85
2022-08-24T19:46:48.386Z,97.35
2022-08-24T19:51:51.039Z,97.32
2022-08-24T19:56:53.907Z,97.10
2022-08-24T20:01:55.549Z,97.63
2022-08-24T20:06:57.875Z,97.43
2022-08-24T20:11:59.552Z,97.69
2022-08-24T20:17:01.443Z,97.51
2022-08-24T20:22:03.162Z,97.48
2022-08-24T20:27:19.254Z,98.32
2022-08-24T20:32:21.344Z,97.85
2022-08-24T20:37:27.031Z,98.16
2022-08-24T20:42:31.622Z,98.38
2022-08-24T20:47:33.293Z,98.99
2022-08-24T20:52:34.914Z,99.42
2022-08-24T20:57:36.873Z,99.97
2022-08-24T21:02:38.470Z,100.00
2022-08-24T21:07:46.092Z,100.00
2022-08-24T21:12:48.833Z,100.00
2022-08-24T21:17:50.810Z,100.00
2022-08-24T21:22:52.401Z,100.00
2022-08-24T21:27:54.412Z,100.00
2022-08-24T21:33:14.554Z,100.00
2022-08-24T21:38:16.138Z,100.00
2022-08-24T21:43:20.251Z,100.00
2022-08-24T21:48:21.988Z,100.00
2022-08-24T21:53:23.547Z,100.00
2022-08-24T21:58:30.158Z,100.00
2022-08-24T22:03:40.161Z,100.00
2022-08-24T22:08:43.451Z,100.00
2022-08-24T22:13:45.590Z,100.00
2022-08-24T22:18:48.019Z,100.00
2022-08-24T22:23:49.965Z,100.00
2022-08-24T22:28:51.589Z,100.00
2022-08-24T22:33:55.145Z,100.00
2022-08-24T22:38:58.463Z,100.00
2022-08-24T22:44:18.593Z,100.00
2022-08-24T22:49:23.841Z,100.00
2022-08-24T22:54:25.687Z,100.00
2022-08-24T22:59:35.645Z,100.00
2022-08-24T23:04:41.246Z,100.00
2022-08-24T23:09:45.190Z,100.00
2022-08-24T23:14:47.731Z,100.00
2022-08-24T23:20:04.949Z,100.00
2022-08-24T23:25:12.789Z,100.00
2022-08-24T23:30:14.736Z,100.00
2022-08-24T23:35:16.501Z,100.00
2022-08-24T23:40:19.111Z,100.00
2022-08-24T23:45:28.466Z,100.00
2022-08-24T23:50:33.662Z,100.00
2022-08-24T23:55:35.291Z,100.00
